createdAt,value
2018-11-11T00:01:02.995Z,12.70
2018-11-11T00:03:37.428Z,12.60
2018-11-11T00:06:04.893Z,12.60
2018-11-11T00:08:32.321Z,12.60
2018-11-11T00:10:59.744Z,12.60
2018-11-11T00:13:27.161Z,12.60
2018-11-11T00:16:00.838Z,12.60
2018-11-11T00:18:34.588Z,12.60
2018-11-11T00:21:02.260Z,12.60
2018-11-11T00:23:29.735Z,12.60
2018-11-11T00:25:57.995Z,12.60
2018-11-11T00:28:25.395Z,12.60
2018-11-11T00:30:52.840Z,12.60
2018-11-11T00:33:20.249Z,12.60
2018-11-11T00:35:47.725Z,12.60
2018-11-11T00:38:15.940Z,12.60
2018-11-11T00:40:43.375Z,12.60
2018-11-11T00:43:10.908Z,12.60
2018-11-11T00:45:38.587Z,12.60
2018-11-11T00:48:06.140Z,12.60
2018-11-11T00:50:33.564Z,12.60
2018-11-11T00:53:01.585Z,12.60
2018-11-11T00:55:37.274Z,12.60
2018-11-11T00:58:11.044Z,12.60
2018-11-11T01:00:38.506Z,12.60
2018-11-11T01:03:06.892Z,12.60
2018-11-11T01:05:35.207Z,12.60
2018-11-11T01:08:02.726Z,12.60
2018-11-11T01:10:31.019Z,12.60
2018-11-11T01:12:58.413Z,12.50
2018-11-11T01:15:26.057Z,12.50
2018-11-11T01:17:53.471Z,12.50
2018-11-11T01:20:20.931Z,12.50
2018-11-11T01:22:48.330Z,12.50
2018-11-11T01:25:16.526Z,12.60
2018-11-11T01:27:44.056Z,12.50
2018-11-11T01:30:12.374Z,12.50
2018-11-11T01:32:40.692Z,12.50
2018-11-11T01:35:13.282Z,12.50
2018-11-11T01:37:41.241Z,12.40
2018-11-11T01:40:08.797Z,12.40
2018-11-11T01:42:36.313Z,12.30
2018-11-11T01:45:04.218Z,12.30
2018-11-11T01:47:32.503Z,12.30
2018-11-11T01:49:59.881Z,12.30
2018-11-11T01:52:27.369Z,12.30
2018-11-11T01:54:54.796Z,12.30
2018-11-11T01:57:22.286Z,12.30
2018-11-11T01:59:49.677Z,12.30
2018-11-11T02:02:17.191Z,12.30
2018-11-11T02:04:44.613Z,12.30
2018-11-11T02:07:18.401Z,12.30
2018-11-11T02:09:46.670Z,12.30
2018-11-11T02:12:14.069Z,12.40
2018-11-11T02:14:41.486Z,12.40
2018-11-11T02:17:08.898Z,12.40
2018-11-11T02:19:36.359Z,12.40
2018-11-11T02:22:04.071Z,12.50
2018-11-11T02:24:31.502Z,12.40
2018-11-11T02:26:59.719Z,12.40
2018-11-11T02:29:27.093Z,12.40
2018-11-11T02:31:54.413Z,12.40
2018-11-11T02:34:22.572Z,12.40
2018-11-11T02:36:49.940Z,12.40
2018-11-11T02:39:17.315Z,12.40
2018-11-11T02:41:44.851Z,12.40
2018-11-11T02:44:12.206Z,12.40
2018-11-11T02:46:39.637Z,12.40
2018-11-11T02:49:07.023Z,12.40
2018-11-11T02:51:40.735Z,12.40
2018-11-11T02:54:08.133Z,12.30
2018-11-11T02:56:35.470Z,12.30
2018-11-11T02:59:09.218Z,12.20
2018-11-11T03:01:36.651Z,12.20
2018-11-11T03:04:05.066Z,12.20
2018-11-11T03:06:33.280Z,12.20
2018-11-11T03:09:00.668Z,12.20
2018-11-11T03:11:28.103Z,12.10
2018-11-11T03:13:55.685Z,12.10
2018-11-11T03:16:29.510Z,12.00
2018-11-11T03:18:56.815Z,12.00
2018-11-11T03:21:30.633Z,12.00
2018-11-11T03:23:58.012Z,12.00
2018-11-11T03:26:25.333Z,11.90
2018-11-11T03:28:58.975Z,11.90
2018-11-11T03:31:26.298Z,11.90
2018-11-11T03:33:56.694Z,11.90
2018-11-11T03:36:30.745Z,11.90
2018-11-11T03:39:07.075Z,11.90
2018-11-11T03:41:34.536Z,11.80
2018-11-11T03:44:08.061Z,11.80
2018-11-11T03:46:35.394Z,11.80
2018-11-11T03:49:02.974Z,11.80
2018-11-11T03:51:30.362Z,11.70
2018-11-11T03:53:57.809Z,11.70
2018-11-11T03:56:26.094Z,11.70
2018-11-11T03:58:54.337Z,11.70
2018-11-11T04:01:21.793Z,11.70
2018-11-11T04:03:49.287Z,11.70
2018-11-11T04:06:17.534Z,11.70
2018-11-11T04:08:45.985Z,11.60
2018-11-11T04:11:13.459Z,11.70
2018-11-11T04:13:40.833Z,11.60
2018-11-11T04:16:08.219Z,11.60
2018-11-11T04:18:35.889Z,11.60
2018-11-11T04:21:03.254Z,11.60
2018-11-11T04:23:30.585Z,11.60
2018-11-11T04:25:57.954Z,11.60
2018-11-11T04:28:25.447Z,11.60
2018-11-11T04:30:52.828Z,11.60
2018-11-11T04:33:20.179Z,11.60
2018-11-11T04:35:47.548Z,11.50
2018-11-11T04:38:14.910Z,11.60
2018-11-11T04:40:42.311Z,11.60
2018-11-11T04:43:09.660Z,11.70
2018-11-11T04:45:37.004Z,11.70
2018-11-11T04:48:04.784Z,11.70
2018-11-11T04:50:32.198Z,11.80
2018-11-11T04:52:59.768Z,11.90
2018-11-11T04:55:28.120Z,11.90
2018-11-11T04:58:01.657Z,11.90
2018-11-11T05:00:29.084Z,12.00
2018-11-11T05:03:02.717Z,12.00
2018-11-11T05:05:30.049Z,12.00
2018-11-11T05:07:57.390Z,12.00
2018-11-11T05:10:24.709Z,12.00
2018-11-11T05:12:52.041Z,12.00
2018-11-11T05:15:19.361Z,12.00
2018-11-11T05:17:46.769Z,12.00
2018-11-11T05:20:14.093Z,12.00
2018-11-11T05:22:42.046Z,12.00
2018-11-11T05:25:10.792Z,12.10
2018-11-11T05:27:38.229Z,12.10
2018-11-11T05:30:13.586Z,12.10
2018-11-11T05:32:40.949Z,12.10
2018-11-11T05:35:09.309Z,12.10
2018-11-11T05:37:36.751Z,12.10
2018-11-11T05:40:05.574Z,12.10
2018-11-11T05:42:32.913Z,12.10
2018-11-11T05:45:00.266Z,12.10
2018-11-11T05:47:27.612Z,12.10
2018-11-11T05:49:55.893Z,12.10
2018-11-11T05:52:23.253Z,12.10
2018-11-11T05:54:50.557Z,12.10
2018-11-11T05:57:17.965Z,12.10
2018-11-11T05:59:45.322Z,12.10
2018-11-11T06:02:12.710Z,12.10
2018-11-11T06:04:40.083Z,12.20
2018-11-11T06:07:07.418Z,12.10
2018-11-11T06:09:34.815Z,12.10
2018-11-11T06:12:02.153Z,12.10
2018-11-11T06:14:29.465Z,12.10
2018-11-11T06:16:56.784Z,12.10
2018-11-11T06:19:24.194Z,12.10
2018-11-11T06:21:52.014Z,12.10
2018-11-11T06:24:19.403Z,12.10
2018-11-11T06:26:46.968Z,12.10
2018-11-11T06:29:15.567Z,12.10
2018-11-11T06:31:42.894Z,12.10
2018-11-11T06:34:10.272Z,12.00
2018-11-11T06:36:37.517Z,12.00
2018-11-11T06:39:06.703Z,12.00
2018-11-11T06:41:34.013Z,12.10
2018-11-11T06:44:02.202Z,12.10
2018-11-11T06:46:29.493Z,12.10
2018-11-11T06:49:03.326Z,12.10
2018-11-11T06:51:30.649Z,12.10
2018-11-11T06:54:04.550Z,12.10
2018-11-11T06:56:38.122Z,12.10
2018-11-11T06:59:06.251Z,12.10
2018-11-11T07:01:39.937Z,12.10
2018-11-11T07:04:07.254Z,12.10
2018-11-11T07:06:35.652Z,12.10
2018-11-11T07:09:09.144Z,12.10
2018-11-11T07:11:36.482Z,12.10
2018-11-11T07:14:03.898Z,12.10
2018-11-11T07:16:31.199Z,12.10
2018-11-11T07:18:58.505Z,12.10
2018-11-11T07:21:25.922Z,12.10
2018-11-11T07:23:59.415Z,12.00
2018-11-11T07:26:32.884Z,12.00
2018-11-11T07:29:00.249Z,11.90
2018-11-11T07:31:33.930Z,11.90
2018-11-11T07:34:01.323Z,11.90
2018-11-11T07:36:35.030Z,11.90
2018-11-11T07:39:10.941Z,11.90
2018-11-11T07:41:38.325Z,11.90
2018-11-11T07:44:05.898Z,12.00
2018-11-11T07:46:33.385Z,12.00
2018-11-11T07:49:07.033Z,12.00
2018-11-11T07:51:34.992Z,12.00
2018-11-11T07:54:02.377Z,12.00
2018-11-11T07:56:29.837Z,12.10
2018-11-11T07:58:57.580Z,12.10
2018-11-11T08:01:31.365Z,12.10
2018-11-11T08:03:58.795Z,12.20
2018-11-11T08:06:26.171Z,12.20
2018-11-11T08:08:53.541Z,12.20
2018-11-11T08:11:33.556Z,12.20
2018-11-11T08:14:01.087Z,12.20
2018-11-11T08:16:34.841Z,12.20
2018-11-11T08:19:02.298Z,12.10
2018-11-11T08:21:29.735Z,12.10
2018-11-11T08:23:58.073Z,12.00
2018-11-11T08:26:25.474Z,12.00
2018-11-11T08:28:53.071Z,12.00
2018-11-11T08:31:20.429Z,11.90
2018-11-11T08:33:47.984Z,11.90
2018-11-11T08:36:15.320Z,11.90
2018-11-11T08:38:43.090Z,11.90
2018-11-11T08:41:10.517Z,11.90
2018-11-11T08:43:37.854Z,11.80
2018-11-11T08:46:05.341Z,11.80
2018-11-11T08:48:32.759Z,11.90
2018-11-11T08:51:00.469Z,11.80
2018-11-11T08:53:27.897Z,11.80
2018-11-11T08:55:56.551Z,11.80
2018-11-11T08:58:24.032Z,11.80
2018-11-11T09:00:51.465Z,11.70
2018-11-11T09:03:23.872Z,11.80
2018-11-11T09:05:51.300Z,11.80
2018-11-11T09:08:18.653Z,11.80
2018-11-11T09:10:45.982Z,11.90
2018-11-11T09:13:19.579Z,11.90
2018-11-11T09:15:46.861Z,12.00
2018-11-11T09:18:20.345Z,12.00
2018-11-11T09:20:47.682Z,12.00
2018-11-11T09:23:15.040Z,11.90
2018-11-11T09:25:48.446Z,12.00
2018-11-11T09:28:15.764Z,12.00
2018-11-11T09:30:43.122Z,12.00
2018-11-11T09:33:10.524Z,12.00
2018-11-11T09:35:38.677Z,11.90
2018-11-11T09:38:07.263Z,11.90
2018-11-11T09:40:34.634Z,12.00
2018-11-11T09:43:01.966Z,12.10
2018-11-11T09:45:30.083Z,12.10
2018-11-11T09:48:03.900Z,12.10
2018-11-11T09:50:37.455Z,12.10
2018-11-11T09:53:10.834Z,12.10
2018-11-11T09:55:38.184Z,12.10
2018-11-11T09:58:05.598Z,12.10
2018-11-11T10:00:32.932Z,12.20
2018-11-11T10:03:06.117Z,12.30
2018-11-11T10:05:37.172Z,12.30
2018-11-11T10:08:18.562Z,12.40
2018-11-11T10:10:59.805Z,12.50
2018-11-11T10:13:51.349Z,12.60
2018-11-11T10:16:30.726Z,12.70
2018-11-11T10:19:09.358Z,12.80
2018-11-11T10:21:51.382Z,13.00
2018-11-11T10:24:46.931Z,13.10
2018-11-11T10:28:22.910Z,13.20
2018-11-11T10:31:03.600Z,13.30
2018-11-11T10:34:12.999Z,13.30
2018-11-11T10:37:46.968Z,13.50
2018-11-11T10:40:19.271Z,13.50
2018-11-11T10:43:05.482Z,13.70
2018-11-11T10:45:38.451Z,13.60
2018-11-11T10:48:06.973Z,13.60
2018-11-11T10:51:08.865Z,13.60
2018-11-11T10:53:42.636Z,13.60
2018-11-11T10:56:10.827Z,13.70
2018-11-11T10:58:44.436Z,13.80
2018-11-11T11:01:22.347Z,13.80
2018-11-11T11:03:50.812Z,13.90
2018-11-11T11:06:30.267Z,13.90
2018-11-11T11:09:03.399Z,13.80
2018-11-11T11:11:30.917Z,13.80
2018-11-11T11:13:58.338Z,13.80
2018-11-11T11:16:25.663Z,13.90
2018-11-11T11:18:59.230Z,13.80
2018-11-11T11:21:26.793Z,13.80
2018-11-11T11:23:59.459Z,13.70
2018-11-11T11:26:26.852Z,13.70
2018-11-11T11:28:54.396Z,13.90
2018-11-11T11:31:25.899Z,14.10
2018-11-11T11:33:53.241Z,14.20
2018-11-11T11:36:26.926Z,14.20
2018-11-11T11:39:00.619Z,14.20
2018-11-11T11:41:34.452Z,14.20
2018-11-11T11:44:02.937Z,14.30
2018-11-11T11:46:30.346Z,14.30
2018-11-11T11:49:04.073Z,14.40
2018-11-11T11:51:37.814Z,14.40
2018-11-11T11:54:11.417Z,14.30
2018-11-11T11:56:44.986Z,14.20
2018-11-11T11:59:13.153Z,14.20
2018-11-11T12:01:40.522Z,14.30
2018-11-11T12:04:08.048Z,14.30
2018-11-11T12:06:36.166Z,14.30
2018-11-11T12:09:06.716Z,14.40
2018-11-11T12:11:33.984Z,14.40
2018-11-11T12:14:01.311Z,14.40
2018-11-11T12:16:28.790Z,14.50
2018-11-11T12:18:56.083Z,14.50
2018-11-11T12:21:23.593Z,14.50
2018-11-11T12:23:51.750Z,14.60
2018-11-11T12:26:19.950Z,14.80
2018-11-11T12:28:47.295Z,14.90
2018-11-11T12:31:14.626Z,15.10
2018-11-11T12:33:48.357Z,15.10
2018-11-11T12:36:15.733Z,15.00
2018-11-11T12:38:43.205Z,15.00
2018-11-11T12:41:10.924Z,15.00
2018-11-11T12:43:38.341Z,14.90
2018-11-11T12:46:11.807Z,14.80
2018-11-11T12:48:39.227Z,14.80
2018-11-11T12:51:07.355Z,14.90
2018-11-11T12:53:40.805Z,14.90
2018-11-11T12:56:08.559Z,14.90
2018-11-11T12:58:35.874Z,14.80
2018-11-11T13:01:03.208Z,14.80
2018-11-11T13:03:31.952Z,14.70
2018-11-11T13:05:59.337Z,14.70
2018-11-11T13:08:32.734Z,14.60
2018-11-11T13:11:00.063Z,14.60
2018-11-11T13:13:27.460Z,14.60
2018-11-11T13:16:00.911Z,14.60
2018-11-11T13:18:34.490Z,14.60
2018-11-11T13:21:01.881Z,14.60
2018-11-11T13:23:29.458Z,14.50
2018-11-11T13:26:03.011Z,14.60
2018-11-11T13:28:31.143Z,14.60
2018-11-11T13:30:59.396Z,14.60
2018-11-11T13:33:27.593Z,14.60
2018-11-11T13:35:54.949Z,14.70
2018-11-11T13:38:28.354Z,14.70
2018-11-11T13:41:01.870Z,14.70
2018-11-11T13:43:29.217Z,14.60
2018-11-11T13:45:56.576Z,14.60
2018-11-11T13:48:24.090Z,14.70
2018-11-11T13:50:57.589Z,14.70
2018-11-11T13:53:30.991Z,14.70
2018-11-11T13:55:58.319Z,14.60
2018-11-11T13:58:25.650Z,14.60
2018-11-11T14:00:59.179Z,14.60
2018-11-11T14:03:26.935Z,14.60
2018-11-11T14:05:55.322Z,14.60
2018-11-11T14:08:28.695Z,14.70
2018-11-11T14:10:56.017Z,14.60
2018-11-11T14:13:29.581Z,14.60
2018-11-11T14:16:03.170Z,14.60
2018-11-11T14:18:30.500Z,14.50
2018-11-11T14:20:57.734Z,14.50
2018-11-11T14:23:25.184Z,14.50
2018-11-11T14:25:52.569Z,14.40
2018-11-11T14:28:19.839Z,14.40
2018-11-11T14:30:47.197Z,14.40
2018-11-11T14:33:14.527Z,14.30
2018-11-11T14:35:42.757Z,14.30
2018-11-11T14:38:10.133Z,14.30
2018-11-11T14:40:37.372Z,14.20
2018-11-11T14:43:04.984Z,14.20
2018-11-11T14:45:38.613Z,14.20
2018-11-11T14:48:05.910Z,14.10
2018-11-11T14:50:33.285Z,14.00
2018-11-11T14:53:06.746Z,14.00
2018-11-11T14:55:34.056Z,13.90
2018-11-11T14:58:01.870Z,13.90
2018-11-11T15:00:30.605Z,14.00
2018-11-11T15:03:12.043Z,14.00
2018-11-11T15:05:39.432Z,14.00
2018-11-11T15:08:21.616Z,14.00
2018-11-11T15:10:49.011Z,14.00
2018-11-11T15:13:17.296Z,14.00
2018-11-11T15:15:50.642Z,14.00
2018-11-11T15:18:24.193Z,14.00
2018-11-11T15:20:51.704Z,14.00
2018-11-11T15:23:18.881Z,14.00
2018-11-11T15:25:46.176Z,13.90
2018-11-11T15:31:05.401Z,13.90
2018-11-11T15:33:32.725Z,13.90
2018-11-11T15:36:00.084Z,13.90
2018-11-11T15:38:28.360Z,13.90
2018-11-11T15:40:56.461Z,13.90
2018-11-11T15:43:24.685Z,13.80
2018-11-11T15:45:52.810Z,13.80
2018-11-11T15:48:26.226Z,13.80
2018-11-11T15:50:53.529Z,13.70
2018-11-11T15:53:27.032Z,13.80
2018-11-11T15:55:54.368Z,13.80
2018-11-11T15:58:27.867Z,13.80
2018-11-11T16:01:01.362Z,13.80
2018-11-11T16:03:29.769Z,13.70
2018-11-11T16:05:57.128Z,13.70
2018-11-11T16:08:30.634Z,13.70
2018-11-11T16:11:04.643Z,13.70
2018-11-11T16:13:32.834Z,13.70
2018-11-11T16:16:00.187Z,13.70
2018-11-11T16:18:27.585Z,13.60
2018-11-11T16:20:54.934Z,13.60
2018-11-11T16:23:23.165Z,13.50
2018-11-11T16:25:51.672Z,13.50
2018-11-11T16:28:19.066Z,13.50
2018-11-11T16:30:52.830Z,13.50
2018-11-11T16:33:20.130Z,13.40
2018-11-11T16:35:47.452Z,13.30
2018-11-11T16:38:20.968Z,13.20
2018-11-11T16:40:54.706Z,13.20
2018-11-11T16:43:21.847Z,13.10
2018-11-11T16:45:49.270Z,13.10
2018-11-11T16:48:22.719Z,13.10
2018-11-11T16:50:50.069Z,13.10
2018-11-11T16:53:17.476Z,13.10
2018-11-11T16:55:44.979Z,13.00
2018-11-11T16:58:18.603Z,12.90
2018-11-11T17:00:45.939Z,12.90
2018-11-11T17:03:13.291Z,12.90
2018-11-11T17:05:40.958Z,12.90
2018-11-11T17:08:14.434Z,12.90
2018-11-11T17:10:41.731Z,12.90
2018-11-11T17:13:10.611Z,12.90
2018-11-11T17:15:38.826Z,12.90
2018-11-11T17:18:06.141Z,13.00
2018-11-11T17:20:33.557Z,13.00
2018-11-11T17:23:03.321Z,13.00
2018-11-11T17:25:30.693Z,13.00
2018-11-11T17:27:58.102Z,13.00
2018-11-11T17:30:32.115Z,13.00
2018-11-11T17:33:00.318Z,13.00
2018-11-11T17:35:27.669Z,13.00
2018-11-11T17:37:55.218Z,13.00
2018-11-11T17:40:26.877Z,13.00
2018-11-11T17:42:54.786Z,12.90
2018-11-11T17:45:22.246Z,12.90
2018-11-11T17:47:50.382Z,12.80
2018-11-11T17:50:19.263Z,12.70
2018-11-11T17:52:46.613Z,12.50
2018-11-11T17:55:15.360Z,12.40
2018-11-11T17:57:43.093Z,12.30
2018-11-11T18:00:14.036Z,12.20
2018-11-11T18:02:42.365Z,12.20
2018-11-11T18:05:17.245Z,12.20
2018-11-11T18:07:50.971Z,12.30
2018-11-11T18:10:19.817Z,12.30
2018-11-11T18:12:47.139Z,12.40
2018-11-11T18:15:16.938Z,12.40
2018-11-11T18:17:44.336Z,12.40
2018-11-11T18:20:15.962Z,12.50
2018-11-11T18:22:43.700Z,12.40
2018-11-11T18:25:17.201Z,12.40
2018-11-11T18:27:44.613Z,12.40
2018-11-11T18:30:18.362Z,12.30
2018-11-11T18:32:46.216Z,12.30
2018-11-11T18:35:20.146Z,12.20
2018-11-11T18:37:47.540Z,12.20
2018-11-11T18:40:23.142Z,12.20
2018-11-11T18:42:56.725Z,12.10
2018-11-11T18:45:25.566Z,12.10
2018-11-11T18:47:59.284Z,12.10
2018-11-11T18:50:28.126Z,12.10
2018-11-11T18:52:55.544Z,12.00
2018-11-11T18:55:23.300Z,12.00
2018-11-11T18:57:56.869Z,12.00
2018-11-11T19:00:28.616Z,12.00
2018-11-11T19:02:56.363Z,12.00
2018-11-11T19:05:30.068Z,12.00
2018-11-11T19:07:57.880Z,12.00
2018-11-11T19:10:27.696Z,12.00
2018-11-11T19:13:02.897Z,12.00
2018-11-11T19:15:30.297Z,12.00
2018-11-11T19:17:57.661Z,12.00
2018-11-11T19:20:25.657Z,12.00
2018-11-11T19:22:53.154Z,12.00
2018-11-11T19:25:27.825Z,12.00
2018-11-11T19:27:56.145Z,12.00
2018-11-11T19:30:30.408Z,12.00
2018-11-11T19:32:57.850Z,12.00
2018-11-11T19:35:28.491Z,12.00
2018-11-11T19:37:56.588Z,12.00
2018-11-11T19:40:30.149Z,11.90
2018-11-11T19:42:58.716Z,11.90
2018-11-11T19:45:32.268Z,11.90
2018-11-11T19:47:59.787Z,11.90
2018-11-11T19:50:28.001Z,11.90
2018-11-11T19:52:56.307Z,11.80
2018-11-11T19:55:24.086Z,11.80
2018-11-11T19:57:51.885Z,11.70
2018-11-11T20:00:30.245Z,11.70
2018-11-11T20:03:04.577Z,11.70
2018-11-11T20:05:32.738Z,11.60
2018-11-11T20:08:01.234Z,11.70
2018-11-11T20:10:34.766Z,11.60
2018-11-11T20:13:02.289Z,11.50
2018-11-11T20:15:36.058Z,11.50
2018-11-11T20:18:09.904Z,11.50
2018-11-11T20:20:43.324Z,11.60
2018-11-11T20:23:10.665Z,11.60
2018-11-11T20:25:38.870Z,11.60
2018-11-11T20:28:12.544Z,11.60
2018-11-11T20:30:39.825Z,11.50
2018-11-11T20:33:07.294Z,11.40
2018-11-11T20:35:34.873Z,11.40
2018-11-11T20:38:02.234Z,11.30
2018-11-11T20:40:30.510Z,11.30
2018-11-11T20:42:58.276Z,11.30
2018-11-11T20:45:27.288Z,11.20
2018-11-11T20:47:55.649Z,11.20
2018-11-11T20:50:24.420Z,11.20
2018-11-11T20:52:53.232Z,11.20
2018-11-11T20:55:21.049Z,11.10
2018-11-11T20:57:48.594Z,11.10
2018-11-11T21:00:21.000Z,11.10
2018-11-11T21:02:48.674Z,11.10
2018-11-11T21:05:18.439Z,11.00
2018-11-11T21:07:45.932Z,11.00
2018-11-11T21:10:14.561Z,10.90
2018-11-11T21:12:42.173Z,10.90
2018-11-11T21:15:12.307Z,10.90
2018-11-11T21:17:39.805Z,10.80
2018-11-11T21:20:08.498Z,10.80
2018-11-11T21:22:42.526Z,10.80
2018-11-11T21:25:16.004Z,10.70
2018-11-11T21:27:44.446Z,10.70
2018-11-11T21:37:33.751Z,10.70
2018-11-11T21:40:07.321Z,10.50
2018-11-11T21:42:34.664Z,10.50
2018-11-11T21:45:09.474Z,10.50
2018-11-11T21:47:43.433Z,10.60
2018-11-11T21:50:12.457Z,10.60
2018-11-11T21:52:40.217Z,10.50
2018-11-11T21:55:07.921Z,10.50
2018-11-11T21:57:35.553Z,10.50
2018-11-11T22:00:03.105Z,10.50
2018-11-11T22:02:37.069Z,10.50
2018-11-11T22:05:06.050Z,10.50
2018-11-11T22:07:33.699Z,10.50
2018-11-11T22:10:01.337Z,10.50
2018-11-11T22:12:28.835Z,10.50
2018-11-11T22:14:56.376Z,10.50
2018-11-11T22:17:24.835Z,10.50
2018-11-11T22:19:58.749Z,10.50
2018-11-11T22:22:26.553Z,10.50
2018-11-11T22:24:54.999Z,10.50
2018-11-11T22:27:22.734Z,10.50
2018-11-11T22:29:51.618Z,10.40
2018-11-11T22:32:25.531Z,10.40
2018-11-11T22:34:53.074Z,10.40
2018-11-11T22:37:20.641Z,10.40
2018-11-11T22:39:52.525Z,10.30
2018-11-11T22:42:26.485Z,10.30
2018-11-11T22:45:00.752Z,10.20
2018-11-11T22:47:34.694Z,10.20
2018-11-11T22:50:11.727Z,10.10
2018-11-11T22:52:46.118Z,10.10
2018-11-11T22:55:20.016Z,10.10
2018-11-11T22:57:54.076Z,10.10
2018-11-11T23:00:29.571Z,10.10
2018-11-11T23:03:04.140Z,10.10
2018-11-11T23:05:38.397Z,10.10
2018-11-11T23:08:13.791Z,10.10
2018-11-11T23:10:48.082Z,10.10
2018-11-11T23:13:21.959Z,10.00
2018-11-11T23:15:55.852Z,10.00
2018-11-11T23:18:30.103Z,10.00
2018-11-11T23:21:04.362Z,10.00
2018-11-11T23:23:38.857Z,9.90
2018-11-11T23:26:12.978Z,9.90
2018-11-11T23:28:46.526Z,9.90
2018-11-11T23:31:20.487Z,9.90
2018-11-11T23:33:54.150Z,9.90
2018-11-11T23:36:27.886Z,9.90
2018-11-11T23:39:02.073Z,9.90
2018-11-11T23:41:36.057Z,9.90
2018-11-11T23:44:09.777Z,10.00
2018-11-11T23:46:43.901Z,10.00
2018-11-11T23:49:17.999Z,10.00
2018-11-11T23:51:52.030Z,10.00
2018-11-11T23:54:25.789Z,10.00
2018-11-11T23:56:59.517Z,10.00
